Main page
METAR-TAF:

METAR-TAF

Airports :

Auckland Airport

Auckland, New Zealand

latitude: 37-01S, longitude: 174-48E, elevation: 7 m

Current weather observation

The report was made 34 minutes ago, at 16:30 UTC
Wind 4 kt from the East/Southeast
Temperature 16°C
Humidity 94%
Pressure 1020 hPa
Visibility 10 km or more

METAR: NZAA 251630Z AUTO 12004KT 9999 NCD 16/15 Q1020 NOSIG

Time: 06:04 (17:04 UTC)

Forecast

The report was made 5 hours and 31 minutes ago, at 11:33 UTC
Forecast valid from 25 at 12 UTC to 26 at 12 UTC
Wind 5 kt from the East/Northeast
Visibility 10 km or more
Few clouds at a height of 5000 ft
Becoming
from 26 at 01 UTC to 26 at 03 UTC
Wind 10 kt from the Southwest
Becoming
from 26 at 05 UTC to 26 at 07 UTC
Wind 10 kt from the East/Northeast

TAF: NZAA 251133Z 2512/2612 06005KT 9999 FEW050 BECMG 2601/2603 23010KT BECMG 2605/2607 06010KT

Weather observations and forecasts of more than 4000 airports (METAR and TAF reports).

The available stations are represented by yellow and red dots on the map.

Hover mouse over dot to see the name of the station.

Then click to see weather observations and forecasts.

To change the map : click on the green buttons with a black cross to zoom in, on the green button with a dash to zoom out, or on the green arrows for adjacent maps.


METAR-TAF: